Time;durP1;ratioP1;P1;durP2;ratioP2;P2;SDS_P1;SDS_P2;PMS_P1;PMS_P2;Temp;Humidity;BMP_temperature;BMP_pressure;BME280_temperature;BME280_humidity;BME280_pressure;Samples;Min_cycle;Max_cycle;Signal;HPM_P1;HPM_P2
2021/10/22 00:01:25;;;;;;;10.80;10.10;;;8.90;99.90;;;;;;4896445;29;20232;-78
2021/10/22 00:03:53;;;;;;;10.60;10.00;;;8.90;99.90;;;;;;4895120;29;20254;-78
2021/10/22 00:06:20;;;;;;;9.33;8.80;;;8.90;99.90;;;;;;4896422;29;20196;-78
2021/10/22 00:08:46;;;;;;;8.37;7.77;;;8.90;99.90;;;;;;4894958;29;20572;-77
2021/10/22 00:11:13;;;;;;;8.20;7.70;;;8.90;99.90;;;;;;4896664;29;20225;-77
2021/10/22 00:13:40;;;;;;;3.33;3.13;;;8.90;99.90;;;;;;4897959;29;20702;-76
2021/10/22 00:16:07;;;;;;;10.77;10.17;;;9.00;99.90;;;;;;4898953;29;20678;-77
2021/10/22 00:18:35;;;;;;;10.83;10.23;;;8.90;99.90;;;;;;4899987;29;20227;-78
2021/10/22 00:21:03;;;;;;;11.13;10.43;;;9.00;99.90;;;;;;4898825;29;20256;-77
2021/10/22 00:23:30;;;;;;;10.70;10.10;;;9.00;99.90;;;;;;4898836;29;20244;-78
2021/10/22 00:25:57;;;;;;;10.80;10.20;;;8.90;99.90;;;;;;4899871;29;20256;-78
2021/10/22 00:28:23;;;;;;;10.60;9.90;;;8.80;99.90;;;;;;4898509;29;20208;-77
2021/10/22 00:30:50;;;;;;;10.90;10.10;;;8.80;99.90;;;;;;4893275;29;20251;-77
2021/10/22 00:33:17;;;;;;;10.80;10.20;;;8.80;99.90;;;;;;4899827;29;20272;-77
2021/10/22 00:35:44;;;;;;;10.67;10.07;;;8.70;99.90;;;;;;4900089;29;20590;-78
2021/10/22 00:38:13;;;;;;;11.07;10.37;;;8.70;99.90;;;;;;4898410;29;20204;-77
2021/10/22 00:40:39;;;;;;;11.00;10.40;;;8.70;99.90;;;;;;4898195;29;20307;-77
2021/10/22 00:43:08;;;;;;;10.37;9.67;;;8.70;99.90;;;;;;4899698;29;20686;-78
2021/10/22 00:45:35;;;;;;;12.73;12.03;;;8.70;99.90;;;;;;4898331;29;20208;-78
2021/10/22 00:48:02;;;;;;;11.90;11.30;;;8.70;99.90;;;;;;4899399;29;20267;-78
2021/10/22 00:50:29;;;;;;;12.60;11.90;;;8.60;99.90;;;;;;4899597;29;20225;-78
2021/10/22 00:52:56;;;;;;;12.50;11.80;;;8.70;99.90;;;;;;4899252;29;20208;-77
2021/10/22 00:55:24;;;;;;;11.10;10.50;;;8.60;99.90;;;;;;4898136;29;20240;-76
2021/10/22 00:57:51;;;;;;;12.07;11.37;;;8.70;99.90;;;;;;4899431;29;20287;-77
2021/10/22 01:00:18;;;;;;;13.17;12.47;;;8.60;99.90;;;;;;4899545;29;20678;-77
2021/10/22 01:02:45;;;;;;;13.40;12.70;;;8.60;99.90;;;;;;4897861;29;20224;-77
2021/10/22 01:05:14;;;;;;;12.57;11.83;;;8.60;99.90;;;;;;4898121;29;20208;-78
2021/10/22 01:07:42;;;;;;;11.90;11.30;;;8.50;99.90;;;;;;4898671;29;20572;-77
2021/10/22 01:10:11;;;;;;;12.13;11.53;;;8.60;99.90;;;;;;4897868;29;20217;-77
2021/10/22 01:12:42;;;;;;;11.53;10.83;;;8.60;99.90;;;;;;4897920;29;20211;-77
2021/10/22 01:15:10;;;;;;;11.73;11.13;;;8.70;99.90;;;;;;4899394;29;20668;-78
2021/10/22 01:17:39;;;;;;;11.57;10.97;;;8.70;99.90;;;;;;4899279;29;20200;-78
2021/10/22 01:20:09;;;;;;;12.70;11.80;;;8.70;99.90;;;;;;4892382;29;20272;-78
2021/10/22 01:22:38;;;;;;;12.60;11.43;;;8.70;99.90;;;;;;4898858;29;20204;-77
2021/10/22 01:25:06;;;;;;;12.77;12.07;;;8.60;99.90;;;;;;4898653;29;20279;-78
2021/10/22 01:27:33;;;;;;;12.10;11.40;;;8.70;99.90;;;;;;4897570;29;20212;-77
2021/10/22 01:30:01;;;;;;;12.00;11.30;;;8.70;99.90;;;;;;4898930;29;20208;-77
2021/10/22 01:32:28;;;;;;;11.60;11.00;;;8.60;99.90;;;;;;4897466;29;20222;-77
2021/10/22 01:34:55;;;;;;;11.73;11.03;;;8.60;99.90;;;;;;4897503;29;20229;-77
2021/10/22 01:37:22;;;;;;;11.10;10.50;;;8.70;99.90;;;;;;4899057;29;20207;-78
2021/10/22 01:39:50;;;;;;;11.23;10.53;;;8.60;99.90;;;;;;4898412;29;20206;-78
2021/10/22 01:42:17;;;;;;;12.00;11.40;;;8.60;99.90;;;;;;4897402;29;20236;-77
2021/10/22 01:44:45;;;;;;;11.40;10.80;;;8.60;99.90;;;;;;4897338;29;20207;-78
2021/10/22 01:47:12;;;;;;;12.00;11.40;;;8.60;99.90;;;;;;4897437;29;20223;-77
2021/10/22 01:49:39;;;;;;;12.03;11.33;;;8.60;99.90;;;;;;4898445;29;20791;-77
2021/10/22 01:52:06;;;;;;;11.70;11.00;;;8.50;99.90;;;;;;4898584;29;20227;-77
2021/10/22 01:54:33;;;;;;;11.40;10.60;;;8.50;99.90;;;;;;4898556;29;20647;-77
2021/10/22 01:57:01;;;;;;;11.20;10.60;;;8.50;99.90;;;;;;4897352;29;20653;-78
2021/10/22 01:59:28;;;;;;;10.90;10.30;;;8.50;99.90;;;;;;4898618;29;20238;-77
2021/10/22 02:01:55;;;;;;;11.60;10.80;;;8.50;99.90;;;;;;4896877;29;20270;-77
2021/10/22 02:04:21;;;;;;;11.10;10.50;;;8.50;99.90;;;;;;4896878;29;20245;-77
2021/10/22 02:06:49;;;;;;;13.33;12.63;;;8.60;99.90;;;;;;4897096;29;20583;-78
2021/10/22 02:09:18;;;;;;;14.27;13.57;;;8.50;99.90;;;;;;4898107;29;20214;-77
2021/10/22 02:11:45;;;;;;;11.53;10.93;;;8.50;99.90;;;;;;4898218;29;20220;-77
2021/10/22 02:14:14;;;;;;;11.70;11.10;;;8.50;99.90;;;;;;4896731;29;20254;-77
2021/10/22 02:16:42;;;;;;;12.60;11.80;;;8.50;99.90;;;;;;4898246;29;20203;-78
2021/10/22 02:19:09;;;;;;;12.90;12.20;;;8.50;99.90;;;;;;4897925;29;20196;-78
2021/10/22 02:21:35;;;;;;;12.40;11.60;;;8.50;99.90;;;;;;4897013;29;20220;-78
2021/10/22 02:24:03;;;;;;;11.40;10.80;;;8.50;99.90;;;;;;4896197;29;20230;-77
2021/10/22 02:26:30;;;;;;;13.20;12.30;;;8.40;99.90;;;;;;4898148;29;20746;-78
2021/10/22 02:28:57;;;;;;;12.80;12.10;;;8.50;99.90;;;;;;4896390;29;20200;-77
2021/10/22 02:31:26;;;;;;;13.43;12.63;;;8.50;99.90;;;;;;4896585;29;20909;-77
2021/10/22 02:33:53;;;;;;;11.90;11.17;;;8.50;99.90;;;;;;4898024;29;20267;-77
2021/10/22 02:36:21;;;;;;;11.30;10.70;;;8.50;99.90;;;;;;4896851;29;20549;-78
2021/10/22 02:38:48;;;;;;;11.63;10.93;;;8.50;99.90;;;;;;4897624;29;20201;-77
2021/10/22 02:41:15;;;;;;;11.77;11.17;;;8.50;99.90;;;;;;4896458;29;20714;-78
2021/10/22 02:43:47;;;;;;;12.30;11.60;;;8.50;99.90;;;;;;4895413;29;20211;-79
2021/10/22 02:46:14;;;;;;;12.00;11.30;;;8.40;99.90;;;;;;4902023;29;20208;-79
2021/10/22 02:48:42;;;;;;;12.00;11.20;;;8.40;99.90;;;;;;4906856;29;20238;-78
2021/10/22 02:51:09;;;;;;;12.03;11.30;;;8.50;99.90;;;;;;4905118;29;20254;-80
2021/10/22 02:53:36;;;;;;;12.60;11.80;;;8.50;99.90;;;;;;4901904;29;20208;-78
2021/10/22 02:56:04;;;;;;;12.40;11.70;;;8.60;99.90;;;;;;4896061;29;20233;-78
2021/10/22 02:58:31;;;;;;;12.13;11.43;;;8.60;99.90;;;;;;4895909;29;20275;-78
2021/10/22 03:00:57;;;;;;;12.20;11.50;;;8.60;99.90;;;;;;4897029;29;20225;-78
2021/10/22 03:03:24;;;;;;;12.33;11.60;;;8.60;99.90;;;;;;4897230;29;20200;-78
2021/10/22 03:05:52;;;;;;;12.83;12.00;;;8.70;99.90;;;;;;4893324;29;20764;-79
2021/10/22 03:08:19;;;;;;;12.17;11.47;;;8.60;99.90;;;;;;4891212;29;20216;-78
2021/10/22 03:10:46;;;;;;;13.13;12.13;;;8.70;99.90;;;;;;4900144;29;20231;-76
2021/10/22 03:13:13;;;;;;;12.10;11.40;;;8.60;99.90;;;;;;4899570;29;20205;-77
2021/10/22 03:15:39;;;;;;;13.90;12.63;;;8.60;99.90;;;;;;4897856;29;20223;-77
2021/10/22 03:18:06;;;;;;;13.33;12.13;;;8.60;99.90;;;;;;4910293;29;20212;-77
2021/10/22 03:20:35;;;;;;;12.63;11.93;;;8.60;99.90;;;;;;4907220;29;20228;-76
2021/10/22 03:23:04;;;;;;;12.97;12.10;;;8.50;99.90;;;;;;4896490;29;20709;-76
2021/10/22 03:25:31;;;;;;;12.50;11.70;;;8.50;99.90;;;;;;4895038;29;20199;-77
2021/10/22 03:28:03;;;;;;;12.60;11.90;;;8.50;99.90;;;;;;4895236;29;20670;-79
2021/10/22 03:30:31;;;;;;;13.47;12.33;;;8.50;99.90;;;;;;4896757;29;20655;-77
2021/10/22 03:32:58;;;;;;;12.17;11.53;;;8.50;99.90;;;;;;4895385;29;20733;-76
2021/10/22 03:35:24;;;;;;;12.13;11.43;;;8.40;99.90;;;;;;4895680;29;20317;-77
2021/10/22 03:37:52;;;;;;;12.33;11.53;;;8.40;99.90;;;;;;4889459;29;20209;-76
2021/10/22 03:40:20;;;;;;;12.40;11.40;;;8.50;99.90;;;;;;4896625;29;20415;-77
2021/10/22 03:42:48;;;;;;;12.90;11.90;;;8.40;99.90;;;;;;4895429;29;20204;-77
2021/10/22 03:45:15;;;;;;;12.57;11.70;;;8.40;99.90;;;;;;4895599;29;20196;-77
2021/10/22 03:47:42;;;;;;;12.43;11.73;;;8.40;99.90;;;;;;4895068;29;20252;-77
2021/10/22 03:50:13;;;;;;;11.90;11.20;;;8.40;99.90;;;;;;4896563;29;20200;-77
2021/10/22 03:52:40;;;;;;;12.67;11.70;;;8.40;99.90;;;;;;4896755;29;20687;-78
2021/10/22 03:55:07;;;;;;;12.00;11.20;;;8.30;99.90;;;;;;4895330;29;20283;-78
2021/10/22 03:57:35;;;;;;;12.37;11.40;;;8.20;99.90;;;;;;4895439;29;20205;-77
2021/10/22 04:00:04;;;;;;;12.00;11.10;;;8.10;99.90;;;;;;4895360;29;20258;-77
2021/10/22 04:02:38;;;;;;;10.87;10.17;;;8.00;99.90;;;;;;4896601;29;20212;-77
2021/10/22 04:05:07;;;;;;;7.67;6.93;;;7.80;99.90;;;;;;4896945;29;20270;-77
2021/10/22 04:07:35;;;;;;;12.00;11.20;;;7.80;99.90;;;;;;4895073;29;20200;-77
2021/10/22 04:10:03;;;;;;;7.93;7.33;;;7.70;99.90;;;;;;4896281;29;20203;-77
2021/10/22 04:12:30;;;;;;;4.63;3.50;;;7.70;99.90;;;;;;4896443;29;20301;-78
2021/10/22 04:14:59;;;;;;;5.50;3.30;;;7.60;99.90;;;;;;4896548;29;20210;-78
2021/10/22 04:17:26;;;;;;;6.83;5.33;;;7.60;99.90;;;;;;4896411;29;20198;-78
2021/10/22 04:19:52;;;;;;;6.03;5.40;;;7.40;99.90;;;;;;4896204;29;20260;-78
2021/10/22 04:22:20;;;;;;;6.13;5.63;;;7.30;99.90;;;;;;4895104;29;20233;-78
2021/10/22 04:24:46;;;;;;;3.93;3.63;;;7.20;99.90;;;;;;4896490;29;20201;-77
2021/10/22 04:27:13;;;;;;;5.17;3.27;;;7.10;99.90;;;;;;4896448;29;20668;-77
2021/10/22 04:29:40;;;;;;;4.73;4.33;;;7.00;99.90;;;;;;4896107;29;20255;-77
2021/10/22 04:32:08;;;;;;;5.93;5.43;;;6.90;99.90;;;;;;4896330;29;20226;-77
2021/10/22 04:34:35;;;;;;;3.50;3.20;;;6.80;99.90;;;;;;4896304;29;20257;-77
2021/10/22 04:37:22;;;;;;;7.77;6.70;;;6.80;99.90;;;;;;4895146;29;20213;-77
2021/10/22 04:42:37;;;;;;;12.30;11.40;;;6.70;99.90;;;;;;4895003;29;20205;-77
2021/10/22 04:45:05;;;;;;;3.50;3.10;;;6.60;99.90;;;;;;4896357;29;20750;-76
2021/10/22 04:47:34;;;;;;;4.80;3.17;;;6.60;99.90;;;;;;4896153;29;20209;-77
2021/10/22 04:50:01;;;;;;;9.53;8.73;;;6.50;99.90;;;;;;4894685;29;20206;-77
2021/10/22 04:52:28;;;;;;;6.00;4.10;;;6.50;99.90;;;;;;4894737;29;20710;-78
2021/10/22 04:54:55;;;;;;;11.77;10.63;;;6.40;99.90;;;;;;4894699;29;20285;-78
2021/10/22 04:57:22;;;;;;;6.53;5.70;;;6.40;99.90;;;;;;4895111;29;20211;-77
2021/10/22 04:59:49;;;;;;;4.00;3.70;;;6.30;99.90;;;;;;4896297;29;20205;-77
2021/10/22 05:02:15;;;;;;;4.53;4.23;;;6.30;99.90;;;;;;4898251;29;20648;-77
2021/10/22 05:04:43;;;;;;;6.67;6.00;;;6.20;99.90;;;;;;4899719;29;20204;-77
2021/10/22 05:07:10;;;;;;;6.73;5.90;;;6.20;99.90;;;;;;4899151;29;20549;-77
2021/10/22 05:09:37;;;;;;;13.77;12.87;;;6.10;99.90;;;;;;4897988;29;20674;-78
2021/10/22 05:12:06;;;;;;;6.63;5.73;;;6.00;99.90;;;;;;4899403;29;20285;-77
2021/10/22 05:14:33;;;;;;;5.40;4.73;;;5.90;99.90;;;;;;4898134;29;20295;-77
2021/10/22 05:17:00;;;;;;;11.33;10.43;;;5.80;99.90;;;;;;4899440;29;20200;-77
2021/10/22 05:19:27;;;;;;;12.80;11.70;;;5.80;99.90;;;;;;4899171;29;20201;-77
2021/10/22 05:21:55;;;;;;;12.37;11.37;;;5.70;99.90;;;;;;4899092;29;20213;-77
2021/10/22 05:24:22;;;;;;;10.87;9.90;;;5.70;99.90;;;;;;4899192;29;20260;-77
2021/10/22 05:26:50;;;;;;;11.73;10.90;;;5.60;99.90;;;;;;4897814;29;20287;-77
2021/10/22 05:29:17;;;;;;;11.53;10.63;;;5.60;99.90;;;;;;4899014;29;20201;-77
2021/10/22 05:31:44;;;;;;;10.67;9.87;;;5.50;99.90;;;;;;4898781;29;20244;-77
2021/10/22 05:34:11;;;;;;;8.23;7.53;;;5.50;99.90;;;;;;4897623;29;20245;-77
2021/10/22 05:36:38;;;;;;;9.73;8.67;;;5.50;99.90;;;;;;4898667;29;20220;-77
2021/10/22 05:39:06;;;;;;;9.40;8.70;;;5.50;99.90;;;;;;4898503;29;20204;-77
2021/10/22 05:41:33;;;;;;;9.57;8.63;;;5.50;99.90;;;;;;4897394;29;20228;-77
2021/10/22 05:43:59;;;;;;;10.07;7.43;;;5.50;99.90;;;;;;4898993;29;20204;-77
2021/10/22 05:46:27;;;;;;;7.77;5.20;;;5.40;99.90;;;;;;4897588;29;20622;-77
2021/10/22 05:48:54;;;;;;;7.20;6.60;;;5.30;99.90;;;;;;4897141;29;20216;-77
2021/10/22 05:51:21;;;;;;;6.30;5.07;;;5.30;99.90;;;;;;4897467;29;20236;-77
2021/10/22 05:53:48;;;;;;;7.63;4.60;;;5.30;99.90;;;;;;4898599;29;20211;-77
2021/10/22 05:56:16;;;;;;;9.70;8.90;;;5.30;99.90;;;;;;4898592;29;20280;-77
2021/10/22 05:58:43;;;;;;;11.63;7.97;;;5.30;99.90;;;;;;4897094;29;20220;-77
2021/10/22 06:01:10;;;;;;;8.80;7.93;;;5.20;99.90;;;;;;4896950;29;20288;-77
2021/10/22 06:03:36;;;;;;;11.30;7.87;;;5.20;99.90;;;;;;4900061;29;20963;-77
2021/10/22 06:06:03;;;;;;;11.80;8.63;;;5.20;99.90;;;;;;4897365;29;20193;-77
2021/10/22 06:08:30;;;;;;;10.43;7.07;;;5.20;99.90;;;;;;4896749;29;20201;-77
2021/10/22 06:10:58;;;;;;;10.03;7.13;;;5.20;99.90;;;;;;4898731;29;20221;-77
2021/10/22 06:13:26;;;;;;;10.37;8.40;;;5.20;99.90;;;;;;4897017;29;20693;-77
2021/10/22 06:15:52;;;;;;;11.50;7.33;;;5.20;99.90;;;;;;4890762;29;20656;-77
2021/10/22 06:18:19;;;;;;;9.67;5.90;;;5.30;99.90;;;;;;4896678;29;20208;-77
2021/10/22 06:20:49;;;;;;;9.77;8.83;;;5.30;99.90;;;;;;4898044;29;20212;-77
2021/10/22 06:26:00;;;;;;;10.63;9.60;;;5.30;99.90;;;;;;4891739;29;20200;-77
2021/10/22 06:28:28;;;;;;;7.77;6.30;;;5.40;99.90;;;;;;4897578;29;20256;-78
2021/10/22 06:30:56;;;;;;;9.63;7.67;;;5.50;99.90;;;;;;4896694;29;20632;-77
2021/10/22 06:33:22;;;;;;;11.43;5.87;;;5.60;99.90;;;;;;4896972;29;20304;-77
2021/10/22 06:35:50;;;;;;;14.50;13.40;;;5.70;99.90;;;;;;4896645;29;20771;-77
2021/10/22 06:38:17;;;;;;;15.90;14.43;;;5.80;99.90;;;;;;4898444;29;20738;-78
2021/10/22 06:40:44;;;;;;;15.07;13.63;;;5.90;99.90;;;;;;4896437;29;20638;-77
2021/10/22 06:43:11;;;;;;;14.73;13.43;;;6.00;99.90;;;;;;4897886;29;20197;-77
2021/10/22 06:45:39;;;;;;;12.60;11.50;;;6.10;99.90;;;;;;4897842;29;20216;-77
2021/10/22 06:48:06;;;;;;;15.20;14.00;;;6.10;99.90;;;;;;4896327;29;20200;-77
2021/10/22 06:50:33;;;;;;;8.07;5.37;;;6.20;99.90;;;;;;4897989;29;20259;-77
2021/10/22 06:53:00;;;;;;;7.17;5.63;;;6.30;99.90;;;;;;4898816;29;20205;-77
2021/10/22 06:55:27;;;;;;;9.37;4.93;;;6.50;99.90;;;;;;4896137;29;20769;-77
2021/10/22 06:57:53;;;;;;;8.43;5.17;;;6.70;99.90;;;;;;4896128;29;20261;-76
2021/10/22 07:00:20;;;;;;;11.07;5.83;;;6.80;99.90;;;;;;4897338;29;20254;-77
2021/10/22 07:02:50;;;;;;;12.87;11.43;;;6.90;99.90;;;;;;4897399;29;20215;-77
2021/10/22 07:05:34;;;;;;;11.20;10.30;;;7.00;99.90;;;;;;4897433;29;20280;-77
2021/10/22 07:08:01;;;;;;;11.00;10.10;;;7.10;99.90;;;;;;4894953;29;20206;-77
2021/10/22 07:10:29;;;;;;;10.63;9.47;;;7.10;99.90;;;;;;4897552;29;20232;-77
2021/10/22 07:12:56;;;;;;;12.53;11.63;;;7.20;99.90;;;;;;4903176;29;20235;-77
2021/10/22 07:15:23;;;;;;;13.27;12.20;;;7.30;99.90;;;;;;4899956;29;20264;-78
2021/10/22 07:17:52;;;;;;;13.13;11.93;;;7.40;99.90;;;;;;4889511;29;20273;-77
2021/10/22 07:20:19;;;;;;;13.70;12.20;;;7.60;99.90;;;;;;4896175;29;20652;-77
2021/10/22 07:22:50;;;;;;;13.80;12.80;;;7.80;99.90;;;;;;4896791;29;20695;-77
2021/10/22 07:25:19;;;;;;;12.93;11.70;;;8.20;99.90;;;;;;4897389;29;20203;-77
2021/10/22 07:27:47;;;;;;;12.77;11.57;;;8.60;99.90;;;;;;4895624;29;20287;-77
2021/10/22 07:30:14;;;;;;;13.97;12.80;;;9.10;99.90;;;;;;4895649;29;20209;-78
2021/10/22 07:32:41;;;;;;;13.73;12.40;;;9.50;99.90;;;;;;4895460;29;20207;-78
2021/10/22 07:35:10;;;;;;;10.83;8.70;;;9.80;99.90;;;;;;4897098;29;20753;-78
2021/10/22 07:37:37;;;;;;;12.37;11.30;;;10.10;99.90;;;;;;4895790;29;20196;-78
2021/10/22 07:40:06;;;;;;;7.70;6.97;;;10.50;99.90;;;;;;4896832;29;20268;-78
2021/10/22 07:42:33;;;;;;;9.77;7.00;;;10.90;99.90;;;;;;4896878;29;20232;-78
2021/10/22 07:45:01;;;;;;;9.37;8.57;;;11.00;99.90;;;;;;4896922;29;20201;-78
2021/10/22 07:47:29;;;;;;;9.03;7.17;;;11.00;99.90;;;;;;4896668;29;20261;-78
2021/10/22 07:49:57;;;;;;;5.87;5.30;;;11.30;99.90;;;;;;4895361;29;20206;-77
2021/10/22 07:52:27;;;;;;;8.13;6.97;;;11.60;99.90;;;;;;4896766;29;20277;-77
2021/10/22 07:54:55;;;;;;;7.13;5.90;;;11.80;99.90;;;;;;4895047;29;20714;-78
2021/10/22 07:57:23;;;;;;;5.63;4.33;;;12.20;99.90;;;;;;4895128;29;20237;-78
2021/10/22 07:59:50;;;;;;;9.97;9.07;;;12.50;99.90;;;;;;4895390;29;20792;-78
2021/10/22 08:02:18;;;;;;;7.30;6.53;;;12.60;99.90;;;;;;4896136;29;20306;-77
2021/10/22 08:04:46;;;;;;;9.87;8.97;;;12.90;99.90;;;;;;4895195;29;20214;-78
2021/10/22 08:07:14;;;;;;;6.23;3.73;;;13.00;99.90;;;;;;4895698;29;20208;-77
2021/10/22 08:09:42;;;;;;;5.10;3.67;;;13.10;99.90;;;;;;4896447;29;20199;-78
2021/10/22 08:12:10;;;;;;;4.07;3.30;;;13.10;99.90;;;;;;4895339;29;20284;-78
2021/10/22 08:14:37;;;;;;;6.23;3.53;;;13.20;99.90;;;;;;4895108;29;20569;-78
2021/10/22 08:17:03;;;;;;;10.20;9.47;;;13.30;99.90;;;;;;4896359;29;20233;-78
2021/10/22 08:19:31;;;;;;;10.10;9.30;;;13.40;99.90;;;;;;4896261;29;20253;-78
2021/10/22 08:24:38;;;;;;;5.63;3.40;;;13.50;99.90;;;;;;4893846;29;20200;-78
2021/10/22 08:27:07;;;;;;;6.13;4.70;;;13.80;99.90;;;;;;4895246;29;20210;-78
2021/10/22 08:29:34;;;;;;;6.30;4.87;;;13.80;99.90;;;;;;4896238;29;20231;-78
2021/10/22 08:32:01;;;;;;;6.87;5.23;;;13.70;99.90;;;;;;4895044;29;20225;-78
2021/10/22 08:34:28;;;;;;;8.80;4.97;;;13.70;99.90;;;;;;4897750;29;20205;-78
2021/10/22 08:36:55;;;;;;;7.50;5.20;;;13.70;99.90;;;;;;4899996;29;20243;-78
2021/10/22 08:39:22;;;;;;;9.30;4.87;;;13.90;99.90;;;;;;4899835;29;20260;-78
2021/10/22 08:41:53;;;;;;;5.80;4.73;;;13.80;99.90;;;;;;4900379;29;20250;-78
2021/10/22 08:44:21;;;;;;;6.63;5.43;;;13.60;99.90;;;;;;4898894;29;20207;-78
2021/10/22 08:46:49;;;;;;;11.93;6.33;;;13.70;99.90;;;;;;4898476;29;20207;-77
2021/10/22 08:49:16;;;;;;;8.90;5.90;;;13.80;99.90;;;;;;4903852;29;20193;-78
2021/10/22 08:51:44;;;;;;;8.30;6.40;;;13.90;99.90;;;;;;4898694;29;20225;-77
2021/10/22 08:54:12;;;;;;;10.50;6.53;;;13.90;99.90;;;;;;4899714;29;20234;-78
2021/10/22 08:56:41;;;;;;;9.53;6.20;;;13.90;99.90;;;;;;4898464;29;20240;-77
2021/10/22 08:59:08;;;;;;;11.67;10.57;;;13.80;99.90;;;;;;4899414;29;20193;-77
2021/10/22 09:02:02;;;;;;;16.30;11.53;;;13.80;99.90;;;;;;4899527;29;20272;-78
2021/10/22 09:04:33;;;;;;;12.43;11.43;;;14.00;99.90;;;;;;4898112;29;20201;-78
2021/10/22 09:07:00;;;;;;;12.60;11.40;;;14.20;99.90;;;;;;4898458;29;20192;-78
2021/10/22 09:09:27;;;;;;;12.03;11.03;;;14.20;99.90;;;;;;4899096;29;20204;-78
2021/10/22 09:11:53;;;;;;;11.57;10.57;;;14.20;99.90;;;;;;4899535;29;20289;-78
2021/10/22 09:14:21;;;;;;;12.37;11.47;;;14.10;99.90;;;;;;4899484;29;20283;-78
2021/10/22 09:16:49;;;;;;;12.33;11.43;;;14.20;99.90;;;;;;4898144;29;20212;-78
2021/10/22 09:19:29;;;;;;;12.23;10.60;;;14.10;99.90;;;;;;4899071;29;20717;-78
2021/10/22 09:22:00;;;;;;;11.93;10.73;;;13.90;99.90;;;;;;4899288;29;20276;-78
2021/10/22 09:24:33;;;;;;;11.70;10.73;;;13.90;99.90;;;;;;4899409;29;20235;-77
2021/10/22 09:27:02;;;;;;;11.57;10.50;;;13.80;99.90;;;;;;4898204;29;20271;-78
2021/10/22 09:29:29;;;;;;;12.57;11.43;;;13.80;99.90;;;;;;4899102;29;20232;-77
2021/10/22 09:31:58;;;;;;;11.37;10.37;;;13.70;99.90;;;;;;4898841;29;20281;-78
2021/10/22 09:34:30;;;;;;;13.53;11.23;;;13.50;99.90;;;;;;4898972;29;20288;-78
2021/10/22 09:37:00;;;;;;;11.73;10.47;;;13.30;99.90;;;;;;4899087;29;20303;-78
2021/10/22 09:39:33;;;;;;;11.60;10.50;;;13.20;99.90;;;;;;4897573;29;20227;-77
2021/10/22 09:42:02;;;;;;;11.30;10.27;;;12.90;99.90;;;;;;4897740;29;20251;-78
2021/10/22 09:44:31;;;;;;;11.23;10.23;;;12.70;99.90;;;;;;4898567;29;20197;-78
2021/10/22 09:47:14;;;;;;;12.50;10.13;;;12.90;99.90;;;;;;4892441;29;20204;-78
2021/10/22 09:49:42;;;;;;;10.70;9.87;;;12.90;99.90;;;;;;4898565;29;20294;-78
2021/10/22 09:52:18;;;;;;;11.37;10.33;;;12.70;99.90;;;;;;4897329;29;20232;-78
2021/10/22 09:54:46;;;;;;;11.17;9.57;;;12.60;99.90;;;;;;4898367;29;20208;-78
2021/10/22 09:57:16;;;;;;;10.87;9.60;;;12.50;99.90;;;;;;4897323;29;20598;-78
2021/10/22 09:59:44;;;;;;;11.20;9.93;;;12.30;99.90;;;;;;4897045;29;20202;-78
2021/10/22 10:02:11;;;;;;;10.90;9.90;;;12.20;99.90;;;;;;4898184;29;20256;-78
2021/10/22 10:04:38;;;;;;;11.23;9.73;;;12.20;99.90;;;;;;4897838;29;20214;-78
2021/10/22 10:07:07;;;;;;;10.33;9.43;;;12.10;99.90;;;;;;4897325;29;20203;-78
2021/10/22 10:09:39;;;;;;;11.17;10.10;;;12.10;99.90;;;;;;4898307;29;20239;-77
2021/10/22 10:12:06;;;;;;;10.30;9.40;;;12.10;99.90;;;;;;4898021;29;20314;-78
2021/10/22 10:14:34;;;;;;;10.00;9.10;;;12.10;99.90;;;;;;4898487;29;20263;-78
2021/10/22 10:17:02;;;;;;;10.50;9.40;;;12.10;99.90;;;;;;4898041;29;20629;-78
2021/10/22 10:19:34;;;;;;;10.40;9.40;;;12.10;99.90;;;;;;4896850;29;20204;-78
2021/10/22 10:22:03;;;;;;;11.10;9.03;;;12.00;99.90;;;;;;4898485;29;20276;-77
2021/10/22 10:24:32;;;;;;;10.30;9.50;;;11.90;99.90;;;;;;4896969;29;20212;-77
2021/10/22 10:27:06;;;;;;;10.37;9.37;;;11.80;99.90;;;;;;4898598;29;20198;-77
2021/10/22 10:29:35;;;;;;;10.50;9.53;;;11.80;99.90;;;;;;4898562;29;20211;-78
2021/10/22 10:32:04;;;;;;;10.30;9.20;;;11.80;99.90;;;;;;4896801;29;20795;-78
2021/10/22 10:34:41;;;;;;;13.47;10.07;;;11.80;99.90;;;;;;4897937;29;20197;-77
2021/10/22 10:37:28;;;;;;;9.73;9.00;;;11.70;99.90;;;;;;4897865;29;20225;-77
2021/10/22 10:40:01;;;;;;;10.40;9.43;;;11.70;99.90;;;;;;4896109;29;20201;-77
2021/10/22 10:42:34;;;;;;;10.50;9.50;;;11.70;99.90;;;;;;4896430;29;20294;-77
2021/10/22 10:45:05;;;;;;;10.77;9.80;;;11.70;99.90;;;;;;4897955;29;20640;-77
2021/10/22 10:47:46;;;;;;;10.57;9.50;;;11.70;99.90;;;;;;4897778;29;20262;-77
2021/10/22 10:50:16;;;;;;;10.10;9.10;;;11.70;99.90;;;;;;4896599;29;20207;-77
2021/10/22 10:52:49;;;;;;;9.53;8.73;;;11.70;99.90;;;;;;4897595;29;20219;-77
2021/10/22 10:55:19;;;;;;;9.47;8.77;;;11.70;99.90;;;;;;4896506;29;20216;-77
2021/10/22 10:57:51;;;;;;;11.00;9.90;;;11.70;99.90;;;;;;4896692;29;20225;-76
2021/10/22 11:00:21;;;;;;;11.10;10.03;;;11.70;99.90;;;;;;4896558;29;20287;-77
2021/10/22 11:03:15;;;;;;;10.70;9.90;;;11.70;99.90;;;;;;4896241;29;20212;-77
2021/10/22 11:06:10;;;;;;;10.27;9.40;;;11.70;99.90;;;;;;4897523;29;20202;-77
2021/10/22 11:08:58;;;;;;;11.67;9.93;;;11.70;99.90;;;;;;4896183;29;20209;-78
2021/10/22 11:11:34;;;;;;;10.00;9.20;;;11.70;99.90;;;;;;4896651;29;20263;-77
2021/10/22 11:14:13;;;;;;;10.23;9.10;;;11.70;99.90;;;;;;4890580;29;20215;-77
2021/10/22 11:16:46;;;;;;;9.90;9.17;;;11.70;99.90;;;;;;4897863;29;20214;-77
2021/10/22 11:19:14;;;;;;;10.00;9.07;;;11.70;99.90;;;;;;4897397;29;20270;-77
2021/10/22 11:21:45;;;;;;;11.80;8.53;;;11.60;99.90;;;;;;4896112;29;20744;-77
2021/10/22 11:24:15;;;;;;;9.87;8.97;;;11.60;99.90;;;;;;4896312;29;20210;-77
2021/10/22 11:26:41;;;;;;;9.60;8.80;;;11.60;99.90;;;;;;4896542;29;20218;-77
2021/10/22 11:29:17;;;;;;;9.60;8.80;;;11.60;99.90;;;;;;4896128;29;20198;-77
2021/10/22 11:31:47;;;;;;;9.93;9.00;;;11.60;99.90;;;;;;4897178;29;20230;-77
2021/10/22 11:34:16;;;;;;;10.40;9.23;;;11.70;99.90;;;;;;4897230;29;20202;-77
2021/10/22 11:36:53;;;;;;;10.33;9.47;;;11.70;99.90;;;;;;4897044;29;20198;-77
2021/10/22 11:39:22;;;;;;;9.77;9.00;;;11.70;99.90;;;;;;4896813;29;20288;-77
2021/10/22 11:42:09;;;;;;;9.80;9.03;;;11.60;99.90;;;;;;4895842;29;20742;-77
2021/10/22 11:44:39;;;;;;;10.33;9.43;;;11.70;99.90;;;;;;4896745;29;20212;-77
2021/10/22 11:47:08;;;;;;;10.50;9.53;;;11.70;99.90;;;;;;4896987;29;20201;-78
2021/10/22 11:49:36;;;;;;;9.07;8.30;;;11.60;99.90;;;;;;4903872;29;20628;-77
2021/10/22 11:52:04;;;;;;;9.40;8.70;;;11.70;99.90;;;;;;4896850;29;20231;-77
2021/10/22 11:54:34;;;;;;;9.60;8.73;;;11.60;99.90;;;;;;4895353;29;20210;-77
2021/10/22 11:57:04;;;;;;;9.67;8.53;;;11.60;99.90;;;;;;4896659;29;20218;-77
2021/10/22 11:59:32;;;;;;;10.97;9.53;;;11.60;99.90;;;;;;4895531;29;20669;-77
2021/10/22 12:02:08;;;;;;;9.40;8.60;;;11.60;99.90;;;;;;4895361;29;20236;-77
2021/10/22 12:04:36;;;;;;;10.50;9.27;;;11.60;99.90;;;;;;4897046;29;20212;-76
2021/10/22 12:07:08;;;;;;;9.63;8.73;;;11.60;99.90;;;;;;4895728;29;20203;-77
2021/10/22 12:09:37;;;;;;;10.07;9.10;;;11.60;99.90;;;;;;4898701;29;20210;-78
2021/10/22 12:12:07;;;;;;;9.93;9.00;;;11.60;99.90;;;;;;4899310;29;20222;-77
2021/10/22 12:14:39;;;;;;;9.30;8.50;;;11.60;99.90;;;;;;4901658;29;20216;-77
2021/10/22 12:17:08;;;;;;;9.47;8.57;;;11.50;99.90;;;;;;4899671;29;20706;-77
2021/10/22 12:19:35;;;;;;;9.47;8.63;;;11.60;99.90;;;;;;4900370;29;20300;-78
2021/10/22 12:22:02;;;;;;;9.47;8.53;;;11.50;99.90;;;;;;4898990;29;20286;-78
2021/10/22 12:24:44;;;;;;;9.03;8.33;;;11.50;99.90;;;;;;4899189;29;20261;-77
2021/10/22 12:27:12;;;;;;;9.63;8.30;;;11.50;99.90;;;;;;4900376;29;20621;-77
2021/10/22 12:29:58;;;;;;;9.97;8.60;;;11.40;99.90;;;;;;4898833;29;20203;-78
2021/10/22 12:32:39;;;;;;;8.97;8.23;;;11.40;99.90;;;;;;4899352;29;20226;-77
2021/10/22 12:35:11;;;;;;;9.70;8.87;;;11.40;99.90;;;;;;4901366;29;20288;-77
2021/10/22 12:37:40;;;;;;;7.40;4.60;;;11.50;99.90;;;;;;4900730;29;20266;-78
2021/10/22 12:40:19;;;;;;;5.57;4.63;;;11.50;99.90;;;;;;4900280;29;20698;-78
2021/10/22 12:42:47;;;;;;;5.13;4.67;;;11.50;99.90;;;;;;4899011;29;20203;-77
2021/10/22 12:45:19;;;;;;;4.80;4.30;;;11.50;99.90;;;;;;4900216;29;20211;-78
2021/10/22 12:47:49;;;;;;;4.97;4.10;;;11.60;99.90;;;;;;4898671;29;20198;-78
2021/10/22 12:50:18;;;;;;;7.40;4.50;;;11.60;99.90;;;;;;4900186;29;20260;-78
2021/10/22 12:52:56;;;;;;;4.80;4.33;;;11.60;99.90;;;;;;4901254;29;20221;-78
2021/10/22 12:55:23;;;;;;;4.13;3.73;;;11.60;99.90;;;;;;4900048;29;20198;-78
2021/10/22 12:57:50;;;;;;;4.27;3.97;;;11.60;99.90;;;;;;4901909;29;20639;-78